IPA weather

Ipota Airport
Ipota, Tafea, Vanuatu

Public forecast

Using degrees Celsius for public forecast. Weather courtesy of forecast.io.

Closest aviation weather report (METAR) to Ipota Airport

Closest report is Tanna Airport, 36.1 nm (66.9 km) S. Retrieved 2020/02/19 12:00 UTC (1 hour ago):

NVVW 191200Z 00000KT 9999 FEW020 25/22 Q1008

Closest aviation forecast (TAF) to Ipota Airport

Forecast is more than 6 hours old.

Closest forecast is Tanna Airport, 36.1 nm (66.9 km) S. Retrieved 2020/02/19 06:36 UTC (6 hours ago):

TAF NVVW 190430Z 1906/2006 14006KT 9999 SCT022